createdAt,value
2018-09-06T00:04:31.339Z,8.70
2018-09-06T00:09:35.497Z,8.83
2018-09-06T00:14:39.509Z,9.28
2018-09-06T00:19:43.637Z,9.68
2018-09-06T00:24:47.660Z,9.20
2018-09-06T00:29:52.257Z,8.20
2018-09-06T00:34:56.407Z,9.03
2018-09-06T00:40:00.537Z,8.20
2018-09-06T00:45:05.068Z,7.85
2018-09-06T00:50:16.160Z,9.33
2018-09-06T00:55:20.824Z,8.58
2018-09-06T01:00:24.955Z,8.50
2018-09-06T01:05:29.680Z,9.60
2018-09-06T01:10:33.819Z,9.50
2018-09-06T01:15:37.898Z,9.08
2018-09-06T01:20:42.019Z,9.55
2018-09-06T01:25:48.457Z,10.05
2018-09-06T01:30:52.556Z,11.35
2018-09-06T01:36:02.098Z,10.80
2018-09-06T01:41:06.360Z,10.80
2018-09-06T01:46:10.435Z,10.72
2018-09-06T01:51:14.613Z,10.32
2018-09-06T01:56:18.702Z,11.00
2018-09-06T02:01:22.833Z,11.63
2018-09-06T02:06:27.275Z,10.78
2018-09-06T02:11:31.453Z,11.25
2018-09-06T02:16:35.929Z,10.43
2018-09-06T02:21:40.127Z,10.63
2018-09-06T02:26:44.275Z,12.05
2018-09-06T02:31:48.497Z,11.03
2018-09-06T02:36:53.123Z,10.95
2018-09-06T02:41:57.674Z,10.15
2018-09-06T02:47:01.917Z,11.45
2018-09-06T02:52:06.697Z,10.95
2018-09-06T02:57:11.538Z,11.50
2018-09-06T03:02:15.594Z,10.90
2018-09-06T03:07:19.776Z,11.45
2018-09-06T03:12:24.032Z,10.88
2018-09-06T03:17:28.191Z,11.90
2018-09-06T03:22:32.212Z,12.75
2018-09-06T03:27:36.668Z,13.48
2018-09-06T03:32:40.793Z,12.35
2018-09-06T03:37:44.864Z,11.70
2018-09-06T03:42:48.983Z,12.40
2018-09-06T03:47:53.111Z,11.43
2018-09-06T03:52:57.241Z,12.10
2018-09-06T03:58:02.407Z,12.40
2018-09-06T04:03:06.807Z,12.78
2018-09-06T04:08:10.894Z,12.53
2018-09-06T04:13:15.051Z,12.63
2018-09-06T04:18:19.245Z,14.78
2018-09-06T04:23:23.428Z,13.68
2018-09-06T04:28:27.737Z,14.23
2018-09-06T04:33:31.937Z,13.65
2018-09-06T04:38:36.179Z,14.53
2018-09-06T04:43:40.402Z,13.25
2018-09-06T04:48:45.621Z,12.75
2018-09-06T04:53:49.747Z,13.10
2018-09-06T04:58:54.041Z,13.80
2018-09-06T05:03:58.211Z,14.13
2018-09-06T05:09:03.616Z,13.48
2018-09-06T05:14:07.700Z,13.60
2018-09-06T05:19:12.880Z,13.25
2018-09-06T05:24:17.110Z,14.20
2018-09-06T05:29:21.782Z,13.22
2018-09-06T05:34:25.933Z,12.68
2018-09-06T05:39:30.165Z,13.80
2018-09-06T05:44:34.419Z,12.60
2018-09-06T05:49:38.561Z,14.47
2018-09-06T05:54:42.938Z,12.33
2018-09-06T05:59:47.040Z,12.35
2018-09-06T06:04:51.149Z,12.55
2018-09-06T06:09:55.232Z,12.33
2018-09-06T06:14:59.428Z,12.35
2018-09-06T06:20:03.735Z,12.82
2018-09-06T06:25:07.859Z,12.70
2018-09-06T06:30:11.884Z,12.70
2018-09-06T06:35:15.975Z,12.25
2018-09-06T06:40:20.771Z,12.55
2018-09-06T06:45:24.878Z,11.45
2018-09-06T06:50:29.193Z,10.93
2018-09-06T06:55:34.129Z,11.68
2018-09-06T07:00:43.186Z,7.78
2018-09-06T07:05:47.335Z,8.60
2018-09-06T07:10:51.467Z,8.93
2018-09-06T07:15:55.635Z,9.45
2018-09-06T07:20:59.991Z,9.40
2018-09-06T07:26:04.117Z,8.80
2018-09-06T07:31:08.351Z,9.93
2018-09-06T07:36:12.376Z,9.48
2018-09-06T07:41:16.599Z,8.98
2018-09-06T07:46:20.715Z,8.58
2018-09-06T07:51:25.951Z,8.65
2018-09-06T07:56:30.195Z,9.30
2018-09-06T08:01:35.215Z,8.83
2018-09-06T08:06:39.518Z,9.13
2018-09-06T08:11:43.865Z,8.70
2018-09-06T08:16:47.941Z,9.25
2018-09-06T08:21:51.968Z,10.15
2018-09-06T08:26:56.148Z,9.35
2018-09-06T08:32:00.316Z,9.68
2018-09-06T08:37:05.005Z,9.75
2018-09-06T08:42:09.199Z,9.50
2018-09-06T08:47:13.408Z,10.38
2018-09-06T08:52:17.514Z,10.20
2018-09-06T08:57:22.712Z,9.45
2018-09-06T09:02:27.920Z,10.20
2018-09-06T09:07:32.022Z,9.95
2018-09-06T09:12:36.019Z,9.23
2018-09-06T09:17:40.167Z,9.83
2018-09-06T09:22:44.400Z,8.85
2018-09-06T09:27:49.249Z,8.48
2018-09-06T09:32:53.395Z,9.23
2018-09-06T09:37:57.614Z,10.08
2018-09-06T09:43:01.797Z,9.63
2018-09-06T09:48:06.107Z,11.15
2018-09-06T09:53:10.320Z,9.20
2018-09-06T09:58:14.443Z,8.98
2018-09-06T10:03:24.095Z,11.75
2018-09-06T10:08:34.560Z,8.63
2018-09-06T10:13:47.487Z,8.40
2018-09-06T10:18:51.603Z,8.73
2018-09-06T10:23:55.772Z,10.25
2018-09-06T10:28:59.876Z,8.30
2018-09-06T10:34:04.280Z,9.25
2018-09-06T10:39:09.985Z,7.72
2018-09-06T10:44:14.116Z,8.45
2018-09-06T10:49:18.285Z,9.98
2018-09-06T10:54:22.447Z,8.23
2018-09-06T10:59:26.794Z,9.58
2018-09-06T11:04:31.022Z,8.55
2018-09-06T11:09:35.174Z,8.60
2018-09-06T11:14:39.293Z,7.92
2018-09-06T11:19:43.660Z,7.87
2018-09-06T11:24:48.160Z,7.25
2018-09-06T11:29:52.177Z,5.70
2018-09-06T11:34:56.315Z,6.12
2018-09-06T11:40:01.381Z,6.30
2018-09-06T11:45:05.770Z,5.87
2018-09-06T11:50:09.915Z,6.70
2018-09-06T11:55:14.117Z,5.97
2018-09-06T12:00:18.447Z,6.72
2018-09-06T12:05:22.601Z,6.65
2018-09-06T12:10:26.750Z,7.17
2018-09-06T12:15:31.011Z,6.72
2018-09-06T12:20:35.105Z,6.03
2018-09-06T12:25:39.243Z,5.92
2018-09-06T12:30:43.428Z,5.67
2018-09-06T12:35:47.639Z,5.90
2018-09-06T12:40:51.819Z,5.67
2018-09-06T12:45:55.967Z,5.35
2018-09-06T12:51:00.191Z,5.17
2018-09-06T12:56:05.184Z,5.33
2018-09-06T13:01:11.971Z,5.78
2018-09-06T13:06:16.180Z,5.12
2018-09-06T13:11:20.315Z,5.12
2018-09-06T13:16:24.422Z,6.60
2018-09-06T13:21:28.592Z,6.90
2018-09-06T13:26:32.706Z,7.67
2018-09-06T13:31:36.975Z,8.75
2018-09-06T13:36:41.124Z,9.78
2018-09-06T13:41:45.231Z,8.20
2018-09-06T13:46:49.354Z,8.18
2018-09-06T13:51:53.577Z,7.92
2018-09-06T13:56:57.643Z,8.73
2018-09-06T14:02:01.798Z,10.00
2018-09-06T14:07:06.356Z,10.18
2018-09-06T14:12:11.232Z,4.80
2018-09-06T14:17:15.462Z,4.45
2018-09-06T14:22:19.970Z,7.72
2018-09-06T14:27:24.157Z,4.83
2018-09-06T14:32:29.163Z,4.30
2018-09-06T14:37:33.392Z,3.80
2018-09-06T14:42:38.442Z,3.77
2018-09-06T14:47:42.581Z,3.10
2018-09-06T14:52:46.882Z,3.33
2018-09-06T14:57:51.040Z,3.45
2018-09-06T15:02:55.185Z,3.33
2018-09-06T15:07:59.362Z,3.10
2018-09-06T15:13:04.932Z,2.98
2018-09-06T15:18:09.142Z,3.00
2018-09-06T15:23:13.280Z,3.10
2018-09-06T15:28:18.154Z,3.00
2018-09-06T15:33:22.276Z,3.30
2018-09-06T15:38:26.730Z,3.12
2018-09-06T15:43:30.825Z,3.25
2018-09-06T15:48:34.972Z,3.20
2018-09-06T15:53:39.229Z,3.40
2018-09-06T15:58:43.401Z,3.27
2018-09-06T16:03:48.141Z,3.67
2018-09-06T16:08:52.157Z,3.25
2018-09-06T16:13:56.971Z,3.52
2018-09-06T16:19:01.241Z,3.42
2018-09-06T16:24:06.054Z,2.98
2018-09-06T16:29:10.980Z,3.85
2018-09-06T16:34:15.761Z,3.60
2018-09-06T16:39:20.445Z,3.72
2018-09-06T16:44:24.584Z,3.45
2018-09-06T16:49:28.607Z,3.50
2018-09-06T16:54:32.821Z,2.95
2018-09-06T16:59:36.929Z,2.90
2018-09-06T17:04:41.210Z,2.83
2018-09-06T17:09:45.908Z,3.55
2018-09-06T17:14:50.098Z,3.20
2018-09-06T17:19:54.214Z,3.02
2018-09-06T17:24:58.888Z,3.62
2018-09-06T17:30:04.031Z,3.55
2018-09-06T17:35:08.133Z,5.53
2018-09-06T17:40:12.822Z,2.90
2018-09-06T17:45:17.017Z,5.05
2018-09-06T17:50:21.235Z,3.17
2018-09-06T17:55:25.357Z,3.02
2018-09-06T18:00:29.449Z,3.02
2018-09-06T18:05:33.618Z,3.50
2018-09-06T18:10:38.185Z,3.52
2018-09-06T18:15:42.369Z,3.90
2018-09-06T18:20:46.438Z,3.58
2018-09-06T18:25:50.590Z,3.75
2018-09-06T18:30:55.441Z,3.17
2018-09-06T18:35:59.971Z,3.70
2018-09-06T18:41:04.117Z,3.27
2018-09-06T18:46:08.431Z,3.20
2018-09-06T18:51:12.852Z,3.05
2018-09-06T18:56:16.983Z,3.15
2018-09-06T19:01:21.315Z,2.40
2018-09-06T19:06:25.451Z,3.15
2018-09-06T19:11:29.586Z,3.10
2018-09-06T19:16:33.743Z,3.58
2018-09-06T19:21:37.829Z,3.65
2018-09-06T19:26:41.913Z,3.60
2018-09-06T19:31:46.172Z,3.45
2018-09-06T19:38:14.733Z,3.40
2018-09-06T19:43:18.961Z,4.00
2018-09-06T19:48:23.714Z,4.55
2018-09-06T19:53:27.928Z,3.90
2018-09-06T19:58:32.001Z,3.95
2018-09-06T20:03:36.121Z,4.90
2018-09-06T20:08:40.160Z,5.20
2018-09-06T20:13:44.839Z,4.75
2018-09-06T20:18:48.968Z,5.58
2018-09-06T20:23:54.390Z,5.80
2018-09-06T20:28:58.597Z,5.50
2018-09-06T20:34:03.115Z,5.42
2018-09-06T20:39:08.467Z,6.47
2018-09-06T20:44:12.558Z,6.20
2018-09-06T20:49:16.849Z,6.00
2018-09-06T20:54:21.025Z,6.55
2018-09-06T20:59:25.949Z,6.53
2018-09-06T21:04:30.019Z,5.87
2018-09-06T21:09:34.148Z,5.25
2018-09-06T21:14:38.274Z,6.05
2018-09-06T21:19:42.365Z,4.92
2018-09-06T21:24:46.523Z,5.70
2018-09-06T21:29:50.685Z,6.37
2018-09-06T21:34:54.809Z,6.10
2018-09-06T21:39:58.911Z,6.72
2018-09-06T21:45:02.961Z,5.62
2018-09-06T21:50:07.323Z,5.25
2018-09-06T21:55:11.441Z,6.30
2018-09-06T22:00:15.565Z,6.25
2018-09-06T22:05:20.507Z,5.22
2018-09-06T22:10:25.348Z,5.33
2018-09-06T22:15:29.909Z,5.37
2018-09-06T22:20:33.977Z,4.78
2018-09-06T22:25:38.153Z,4.97
2018-09-06T22:30:42.956Z,4.67
2018-09-06T22:35:47.960Z,4.50
2018-09-06T22:40:52.842Z,4.45
2018-09-06T22:45:57.115Z,4.70
2018-09-06T22:51:01.982Z,5.58
2018-09-06T22:56:06.214Z,4.70
2018-09-06T23:01:10.391Z,4.87
2018-09-06T23:06:14.442Z,4.75
2018-09-06T23:11:18.587Z,4.70
2018-09-06T23:16:22.916Z,5.22
2018-09-06T23:21:26.990Z,5.10
2018-09-06T23:26:31.130Z,5.50
2018-09-06T23:31:35.279Z,5.83
2018-09-06T23:36:39.366Z,5.65
2018-09-06T23:41:43.400Z,5.22
2018-09-06T23:46:47.522Z,5.55
2018-09-06T23:51:51.637Z,5.47
2018-09-06T23:56:55.713Z,5.92
